Wetterdaten: Woche 05.12.16 - 11.12.16 (KW49)
Datum Zeit Temp. A. Feuchte A. Luftdruck Regen Wind Richtung Sonnenschein ET UV Solar Taupunkt Windchill Windben Empfang
05.12.2016 00:00 -1,5 C 93 % 1029,5 hPa 0,0 l/m 10,2 km/h (2 Bft) O-NO 0,00 h 0,000 mm 0,0 UV-I 0 W/m -2,5 C -5,2 C 15,8 km/h (3 Bft) 97,99 %
05.12.2016 01:00 -1,5 C 93 % 1029,3 hPa 0,0 l/m 9,7 km/h (2 Bft) O-NO 0,00 h 0,000 mm 0,0 UV-I 0 W/m -2,6 C -4,7 C 14,7 km/h (3 Bft) 99,27 %
05.12.2016 02:00 -1,6 C 93 % 1029,4 hPa 0,0 l/m 9,1 km/h (2 Bft) O-NO 0,00 h 0,000 mm 0,0 UV-I 0 W/m -2,6 C -4,4 C 14,0 km/h (3 Bft) 97,99 %
05.12.2016 03:00 -1,7 C 93 % 1029,3 hPa 0,0 l/m 8,0 km/h (2 Bft) NO 0,00 h 0,000 mm 0,0 UV-I 0 W/m -2,7 C -3,4 C 12,2 km/h (2 Bft) 99,70 %
05.12.2016 04:00 -1,8 C 93 % 1029,2 hPa 0,0 l/m 5,4 km/h (1 Bft) O-NO 0,00 h 0,000 mm 0,0 UV-I 0 W/m -2,8 C -2,1 C 8,1 km/h (2 Bft) 98,17 %
05.12.2016 05:00 -1,8 C 93 % 1029,2 hPa 0,0 l/m 3,6 km/h (1 Bft) O-NO 0,00 h 0,000 mm 0,0 UV-I 0 W/m -2,8 C -1,8 C 5,7 km/h (1 Bft) 99,44 %
05.12.2016 06:00 -1,9 C 93 % 1029,3 hPa 0,0 l/m 4,0 km/h (1 Bft) O-NO 0,00 h 0,000 mm 0,0 UV-I 0 W/m -2,9 C -1,9 C 6,6 km/h (2 Bft) 98,02 %
05.12.2016 07:00 -2,1 C 93 % 1029,5 hPa 0,0 l/m 2,5 km/h (1 Bft) NO 0,00 h 0,000 mm 0,0 UV-I 5 W/m -3,1 C -2,1 C 4,0 km/h (1 Bft) 98,64 %
05.12.2016 08:00 -2,0 C 93 % 1029,7 hPa 0,0 l/m 1,9 km/h (1 Bft) NO 0,00 h 0,000 mm 0,0 UV-I 16 W/m -3,0 C -2,0 C 4,1 km/h (1 Bft) 98,01 %
05.12.2016 09:00 -1,9 C 93 % 1029,9 hPa 0,0 l/m 0,6 km/h (0 Bft) W 0,00 h 0,000 mm 0,0 UV-I 35 W/m -2,9 C -1,9 C 1,8 km/h (1 Bft) 99,15 %
05.12.2016 10:00 -1,8 C 93 % 1030,0 hPa 0,0 l/m 0,9 km/h (0 Bft) N-NO 0,00 h 0,000 mm 0,0 UV-I 50 W/m -2,8 C -1,8 C 2,0 km/h (1 Bft) 97,55 %
05.12.2016 11:00 -1,6 C 93 % 1029,7 hPa 0,0 l/m 2,2 km/h (1 Bft) N-NO 0,00 h 0,025 mm 0,0 UV-I 61 W/m -2,6 C -1,6 C 4,2 km/h (1 Bft) 98,79 %
05.12.2016 12:00 -1,6 C 92 % 1029,5 hPa 0,0 l/m 1,5 km/h (1 Bft) NO 0,00 h 0,026 mm 0,0 UV-I 66 W/m -2,7 C -1,6 C 3,4 km/h (1 Bft) 98,17 %
05.12.2016 13:00 -1,6 C 92 % 1029,2 hPa 0,0 l/m 1,9 km/h (1 Bft) S 0,00 h 0,025 mm 0,0 UV-I 64 W/m -2,7 C -1,6 C 4,1 km/h (1 Bft) 99,21 %
05.12.2016 14:00 -1,6 C 92 % 1029,2 hPa 0,0 l/m 2,4 km/h (1 Bft) W 0,00 h 0,026 mm 0,0 UV-I 44 W/m -2,7 C -1,6 C 4,8 km/h (1 Bft) 97,76 %
05.12.2016 15:00 -1,7 C 93 % 1029,2 hPa 0,0 l/m 2,8 km/h (1 Bft) S-SW 0,00 h 0,025 mm 0,0 UV-I 18 W/m -2,6 C -1,7 C 5,3 km/h (1 Bft) 99,17 %
05.12.2016 16:00 -1,8 C 93 % 1029,3 hPa 0,0 l/m 2,5 km/h (1 Bft) S-SW 0,00 h 0,000 mm 0,0 UV-I 5 W/m -2,7 C -1,8 C 4,6 km/h (1 Bft) 97,79 %
05.12.2016 17:00 -2,1 C 94 % 1029,5 hPa 0,0 l/m 3,1 km/h (1 Bft) SW 0,00 h 0,000 mm 0,0 UV-I 0 W/m -2,9 C -2,1 C 5,3 km/h (1 Bft) 99,46 %
05.12.2016 18:00 -2,3 C 95 % 1029,6 hPa 0,0 l/m 2,9 km/h (1 Bft) SW 0,00 h 0,000 mm 0,0 UV-I 0 W/m -3,0 C -2,3 C 4,9 km/h (1 Bft) 98,01 %
05.12.2016 19:00 -2,3 C 95 % 1029,7 hPa 0,0 l/m 2,8 km/h (1 Bft) SW 0,00 h 0,000 mm 0,0 UV-I 0 W/m -3,0 C -2,3 C 5,3 km/h (1 Bft) 99,31 %
05.12.2016 20:00 -2,3 C 96 % 1029,7 hPa 0,0 l/m 3,1 km/h (1 Bft) W-SW 0,00 h 0,000 mm 0,0 UV-I 0 W/m -2,9 C -2,3 C 5,7 km/h (1 Bft) 98,20 %
05.12.2016 21:00 -2,3 C 96 % 1029,9 hPa 0,0 l/m 2,2 km/h (1 Bft) W-SW 0,00 h 0,000 mm 0,0 UV-I 0 W/m -2,9 C -2,3 C 3,8 km/h (1 Bft) 99,20 %
05.12.2016 22:00 -2,3 C 97 % 1029,8 hPa 0,0 l/m 2,7 km/h (1 Bft) W-SW 0,00 h 0,000 mm 0,0 UV-I 0 W/m -2,8 C -2,3 C 5,4 km/h (1 Bft) 98,30 %
05.12.2016 23:00 -2,4 C 97 % 1029,8 hPa 0,0 l/m 2,8 km/h (1 Bft) W 0,00 h 0,000 mm 0,0 UV-I 0 W/m -2,8 C -2,4 C 5,6 km/h (1 Bft) 99,11 %
06.12.2016 00:00 -2,6 C 97 % 1029,8 hPa 0,0 l/m 4,0 km/h (1 Bft) SW 0,00 h 0,000 mm 0,0 UV-I 0 W/m -3,0 C -2,6 C 7,1 km/h (2 Bft) 98,35 %
06.12.2016 01:00 -2,4 C 97 % 1029,9 hPa 0,0 l/m 3,9 km/h (1 Bft) W 0,00 h 0,000 mm 0,0 UV-I 0 W/m -2,8 C -2,4 C 7,0 km/h (2 Bft) 98,71 %
06.12.2016 02:00 -2,3 C 97 % 1030,1 hPa 0,0 l/m 2,4 km/h (1 Bft) W 0,00 h 0,000 mm 0,0 UV-I 0 W/m -2,7 C -2,3 C 4,5 km/h (1 Bft) 98,51 %
06.12.2016 03:00 -2,3 C 97 % 1030,3 hPa 0,0 l/m 3,1 km/h (1 Bft) W 0,00 h 0,000 mm 0,0 UV-I 0 W/m -2,7 C -2,3 C 5,5 km/h (1 Bft) 98,75 %
06.12.2016 04:00 -2,2 C 97 % 1030,2 hPa 0,0 l/m 4,0 km/h (1 Bft) W 0,00 h 0,000 mm 0,0 UV-I 0 W/m -2,6 C -2,3 C 7,0 km/h (2 Bft) 98,72 %
06.12.2016 05:00 -2,3 C 97 % 1030,2 hPa 0,0 l/m 6,4 km/h (2 Bft) W 0,00 h 0,000 mm 0,0 UV-I 0 W/m -2,7 C -3,2 C 10,6 km/h (2 Bft) 99,09 %
06.12.2016 06:00 -2,3 C 97 % 1030,4 hPa 0,0 l/m 5,5 km/h (1 Bft) W-SW 0,00 h 0,000 mm 0,0 UV-I 0 W/m -2,7 C -2,5 C 9,2 km/h (2 Bft) 98,68 %
06.12.2016 07:00 -2,4 C 97 % 1030,7 hPa 0,0 l/m 5,8 km/h (2 Bft) W 0,00 h 0,000 mm 0,0 UV-I 5 W/m -2,8 C -2,8 C 10,1 km/h (2 Bft) 98,03 %
06.12.2016 08:00 -2,2 C 97 % 1031,4 hPa 0,0 l/m 5,7 km/h (1 Bft) W-SW 0,00 h 0,000 mm 0,0 UV-I 18 W/m -2,6 C -2,7 C 9,5 km/h (2 Bft) 98,68 %
06.12.2016 09:00 -1,8 C 96 % 1031,9 hPa 0,0 l/m 8,0 km/h (2 Bft) W-SW 0,00 h 0,000 mm 0,0 UV-I 55 W/m -2,4 C -3,7 C 13,4 km/h (3 Bft) 97,83 %
06.12.2016 10:00 -1,6 C 94 % 1032,3 hPa 0,0 l/m 8,6 km/h (2 Bft) W 0,00 h 0,025 mm 0,0 UV-I 119 W/m -2,4 C -4,0 C 14,0 km/h (3 Bft) 98,80 %
06.12.2016 11:00 -1,1 C 92 % 1032,2 hPa 0,0 l/m 7,9 km/h (2 Bft) W 0,27 h 0,051 mm 0,4 UV-I 175 W/m -2,2 C -2,9 C 13,3 km/h (3 Bft) 98,53 %
06.12.2016 12:00 -0,6 C 92 % 1032,1 hPa 0,0 l/m 6,8 km/h (2 Bft) W-SW 0,47 h 0,051 mm 0,5 UV-I 195 W/m -1,8 C -1,7 C 11,8 km/h (2 Bft) 98,31 %
06.12.2016 13:00 0,0 C 91 % 1032,1 hPa 0,0 l/m 3,8 km/h (1 Bft) W-NW 0,27 h 0,076 mm 0,0 UV-I 151 W/m -1,3 C 0,0 C 8,4 km/h (2 Bft) 98,90 %
06.12.2016 14:00 -0,3 C 92 % 1032,1 hPa 0,0 l/m 2,2 km/h (1 Bft) W-NW 0,00 h 0,051 mm 0,0 UV-I 44 W/m -1,4 C -0,3 C 4,6 km/h (1 Bft) 98,25 %
06.12.2016 15:00 -0,7 C 94 % 1032,2 hPa 0,0 l/m 3,0 km/h (1 Bft) W-NW 0,00 h 0,025 mm 0,0 UV-I 19 W/m -1,6 C -0,7 C 6,1 km/h (2 Bft) 99,20 %
06.12.2016 16:00 -1,0 C 95 % 1032,9 hPa 0,0 l/m 2,0 km/h (1 Bft) NW 0,00 h 0,000 mm 0,0 UV-I 5 W/m -1,7 C -1,0 C 4,7 km/h (1 Bft) 98,85 %
06.12.2016 17:00 -1,1 C 96 % 1033,6 hPa 0,0 l/m 2,1 km/h (1 Bft) W-NW 0,00 h 0,000 mm 0,0 UV-I 0 W/m -1,7 C -1,2 C 4,6 km/h (1 Bft) 98,87 %
06.12.2016 18:00 -1,2 C 96 % 1034,3 hPa 0,0 l/m 2,1 km/h (1 Bft) W 0,00 h 0,000 mm 0,0 UV-I 0 W/m -1,8 C -1,2 C 4,2 km/h (1 Bft) 98,73 %
06.12.2016 19:00 -1,3 C 97 % 1034,9 hPa 0,0 l/m 1,0 km/h (0 Bft) W-NW 0,00 h 0,000 mm 0,0 UV-I 0 W/m -1,7 C -1,3 C 2,9 km/h (1 Bft) 98,50 %
06.12.2016 20:00 -1,4 C 97 % 1035,3 hPa 0,0 l/m 1,2 km/h (1 Bft) W 0,00 h 0,000 mm 0,0 UV-I 0 W/m -1,8 C -1,4 C 2,7 km/h (1 Bft) 98,81 %
06.12.2016 21:00 -1,5 C 97 % 1035,5 hPa 0,0 l/m 1,2 km/h (1 Bft) N-NO 0,00 h 0,000 mm 0,0 UV-I 0 W/m -2,0 C -1,5 C 3,4 km/h (1 Bft) 98,29 %
06.12.2016 22:00 -1,9 C 97 % 1035,4 hPa 0,0 l/m 3,3 km/h (1 Bft) N-NO 0,00 h 0,000 mm 0,0 UV-I 0 W/m -2,3 C -1,9 C 6,1 km/h (2 Bft) 98,98 %
06.12.2016 23:00 -2,0 C 97 % 1035,9 hPa 0,0 l/m 1,2 km/h (1 Bft) N-NO 0,00 h 0,000 mm 0,0 UV-I 0 W/m -2,4 C -2,0 C 3,3 km/h (1 Bft) 98,21 %
07.12.2016 00:00 -2,0 C 98 % 1035,8 hPa 0,0 l/m 1,6 km/h (1 Bft) N-NO 0,00 h 0,000 mm 0,0 UV-I 0 W/m -2,2 C -2,0 C 3,6 km/h (1 Bft) 99,10 %
07.12.2016 01:00 -2,0 C 98 % 1035,9 hPa 0,0 l/m 1,6 km/h (1 Bft) N-NO 0,00 h 0,000 mm 0,0 UV-I 0 W/m -2,3 C -2,0 C 3,9 km/h (1 Bft) 98,61 %
07.12.2016 02:00 -2,2 C 98 % 1036,1 hPa 0,0 l/m 1,2 km/h (1 Bft) NO 0,00 h 0,000 mm 0,0 UV-I 0 W/m -2,5 C -2,2 C 2,8 km/h (1 Bft) 99,26 %
07.12.2016 03:00 -2,2 C 98 % 1036,1 hPa 0,0 l/m 1,4 km/h (1 Bft) O-NO 0,00 h 0,000 mm 0,0 UV-I 0 W/m -2,5 C -2,2 C 3,5 km/h (1 Bft) 98,43 %
07.12.2016 04:00 -2,3 C 98 % 1036,6 hPa 0,0 l/m 3,3 km/h (1 Bft) NO 0,00 h 0,000 mm 0,0 UV-I 0 W/m -2,6 C -2,3 C 5,8 km/h (2 Bft) 99,04 %
07.12.2016 05:00 -2,5 C 97 % 1036,9 hPa 0,0 l/m 1,8 km/h (1 Bft) O-NO 0,00 h 0,000 mm 0,0 UV-I 0 W/m -2,9 C -2,5 C 3,6 km/h (1 Bft) 97,79 %
07.12.2016 06:00 -2,6 C 97 % 1037,1 hPa 0,0 l/m 1,8 km/h (1 Bft) O 0,00 h 0,000 mm 0,0 UV-I 0 W/m -2,9 C -2,6 C 3,7 km/h (1 Bft) 99,33 %
07.12.2016 07:00 -2,4 C 97 % 1036,8 hPa 0,0 l/m 2,5 km/h (1 Bft) O-NO 0,00 h 0,000 mm 0,0 UV-I 6 W/m -2,8 C -2,4 C 4,3 km/h (1 Bft) 97,86 %
07.12.2016 08:00 -2,4 C 97 % 1037,1 hPa 0,0 l/m 3,0 km/h (1 Bft) NO 0,00 h 0,000 mm 0,0 UV-I 15 W/m -2,8 C -2,4 C 5,1 km/h (1 Bft) 99,43 %
07.12.2016 09:00 -2,5 C 97 % 1037,7 hPa 0,0 l/m 4,7 km/h (1 Bft) O-NO 0,00 h 0,000 mm 0,0 UV-I 32 W/m -2,9 C -2,6 C 7,5 km/h (2 Bft) 98,20 %
07.12.2016 10:00 -2,5 C 97 % 1037,9 hPa 0,0 l/m 5,2 km/h (1 Bft) O-NO 0,00 h 0,000 mm 0,0 UV-I 50 W/m -2,8 C -2,7 C 8,2 km/h (2 Bft) 99,37 %
07.12.2016 11:00 -2,4 C 98 % 1037,4 hPa 0,0 l/m 4,6 km/h (1 Bft) NO 0,00 h 0,025 mm 0,0 UV-I 59 W/m -2,7 C -2,5 C 7,7 km/h (2 Bft) 97,90 %
07.12.2016 12:00 -2,3 C 97 % 1036,8 hPa 0,0 l/m 4,9 km/h (1 Bft) NO 0,00 h 0,026 mm 0,0 UV-I 59 W/m -2,6 C -2,5 C 8,0 km/h (2 Bft) 99,27 %
07.12.2016 13:00 -2,5 C 97 % 1036,4 hPa 0,0 l/m 4,2 km/h (1 Bft) O-NO 0,00 h 0,025 mm 0,0 UV-I 57 W/m -2,9 C -2,6 C 6,8 km/h (2 Bft) 97,93 %
07.12.2016 14:00 -2,4 C 98 % 1036,3 hPa 0,0 l/m 3,1 km/h (1 Bft) O-NO 0,00 h 0,026 mm 0,0 UV-I 31 W/m -2,7 C -2,4 C 6,0 km/h (2 Bft) 99,35 %
07.12.2016 15:00 -2,3 C 98 % 1036,5 hPa 0,0 l/m 4,2 km/h (1 Bft) O-NO 0,00 h 0,000 mm 0,0 UV-I 14 W/m -2,6 C -2,5 C 7,0 km/h (2 Bft) 97,97 %
07.12.2016 16:00 -2,4 C 97 % 1036,8 hPa 0,0 l/m 3,1 km/h (1 Bft) O-NO 0,00 h 0,000 mm 0,0 UV-I 5 W/m -2,8 C -2,4 C 5,6 km/h (1 Bft) 99,38 %
07.12.2016 17:00 -2,3 C 98 % 1036,8 hPa 0,0 l/m 3,4 km/h (1 Bft) O 0,00 h 0,000 mm 0,0 UV-I 0 W/m -2,6 C -2,4 C 6,3 km/h (2 Bft) 97,86 %
07.12.2016 18:00 -2,4 C 98 % 1036,8 hPa 0,0 l/m 2,2 km/h (1 Bft) O-NO 0,00 h 0,000 mm 0,0 UV-I 0 W/m -2,8 C -2,4 C 4,4 km/h (1 Bft) 99,33 %
07.12.2016 19:00 -2,4 C 98 % 1036,9 hPa 0,0 l/m 1,4 km/h (1 Bft) NO 0,00 h 0,000 mm 0,0 UV-I 0 W/m -2,6 C -2,4 C 2,7 km/h (1 Bft) 98,08 %
07.12.2016 20:00 -2,4 C 98 % 1037,1 hPa 0,0 l/m 0,1 km/h (0 Bft) N 0,00 h 0,000 mm 0,0 UV-I 0 W/m -2,8 C -2,4 C 0,6 km/h (0 Bft) 99,15 %
07.12.2016 21:00 -2,3 C 98 % 1037,2 hPa 0,0 l/m 0,2 km/h (0 Bft) N 0,00 h 0,000 mm 0,0 UV-I 0 W/m -2,6 C -2,3 C 0,7 km/h (0 Bft) 98,19 %
07.12.2016 22:00 -2,3 C 98 % 1037,4 hPa 0,0 l/m 1,4 km/h (1 Bft) NO 0,00 h 0,000 mm 0,0 UV-I 0 W/m -2,6 C -2,3 C 3,0 km/h (1 Bft) 99,38 %
07.12.2016 23:00 -2,3 C 98 % 1037,5 hPa 0,0 l/m 2,0 km/h (1 Bft) W 0,00 h 0,000 mm 0,0 UV-I 0 W/m -2,6 C -2,3 C 4,3 km/h (1 Bft) 98,74 %
08.12.2016 00:00 -2,4 C 98 % 1037,5 hPa 0,0 l/m 1,9 km/h (1 Bft) W 0,00 h 0,000 mm 0,0 UV-I 0 W/m -2,7 C -2,4 C 3,9 km/h (1 Bft) 99,12 %
08.12.2016 01:00 -2,5 C 97 % 1037,4 hPa 0,0 l/m 3,0 km/h (1 Bft) S-SW 0,00 h 0,000 mm 0,0 UV-I 0 W/m -2,9 C -2,5 C 5,4 km/h (1 Bft) 98,72 %
08.12.2016 02:00 -2,6 C 97 % 1037,4 hPa 0,0 l/m 3,1 km/h (1 Bft) SW 0,00 h 0,000 mm 0,0 UV-I 0 W/m -3,0 C -2,6 C 5,5 km/h (1 Bft) 98,32 %
08.12.2016 03:00 -2,6 C 97 % 1037,1 hPa 0,0 l/m 2,2 km/h (1 Bft) SW 0,00 h 0,000 mm 0,0 UV-I 0 W/m -3,0 C -2,6 C 4,1 km/h (1 Bft) 99,01 %
08.12.2016 04:00 -2,8 C 97 % 1037,1 hPa 0,0 l/m 2,0 km/h (1 Bft) W 0,00 h 0,000 mm 0,0 UV-I 0 W/m -3,2 C -2,8 C 3,9 km/h (1 Bft) 98,72 %
08.12.2016 05:00 -2,8 C 97 % 1037,0 hPa 0,0 l/m 0,6 km/h (0 Bft) W-NW 0,00 h 0,000 mm 0,0 UV-I 0 W/m -3,2 C -2,8 C 1,8 km/h (1 Bft) 98,83 %
08.12.2016 06:00 -2,9 C 97 % 1036,9 hPa 0,0 l/m 0,9 km/h (0 Bft) W-NW 0,00 h 0,000 mm 0,0 UV-I 0 W/m -3,3 C -2,9 C 2,5 km/h (1 Bft) 98,47 %
08.12.2016 07:00 -3,0 C 97 % 1036,9 hPa 0,0 l/m 1,1 km/h (1 Bft) W-SW 0,00 h 0,000 mm 0,0 UV-I 5 W/m -3,4 C -3,0 C 2,3 km/h (1 Bft) 98,44 %
08.12.2016 08:00 -3,0 C 97 % 1037,0 hPa 0,0 l/m 0,7 km/h (0 Bft) W-SW 0,00 h 0,000 mm 0,0 UV-I 28 W/m -3,4 C -3,0 C 2,2 km/h (1 Bft) 98,36 %
08.12.2016 09:00 -2,8 C 97 % 1037,2 hPa 0,0 l/m 1,6 km/h (1 Bft) W-SW 0,00 h 0,000 mm 0,0 UV-I 80 W/m -3,1 C -2,8 C 3,6 km/h (1 Bft) 99,21 %
08.12.2016 10:00 -2,4 C 97 % 1037,0 hPa 0,0 l/m 1,5 km/h (1 Bft) W-SW 0,00 h 0,025 mm 0,0 UV-I 78 W/m -2,8 C -2,4 C 3,1 km/h (1 Bft) 97,66 %
08.12.2016 11:00 -2,1 C 98 % 1036,4 hPa 0,0 l/m 1,0 km/h (0 Bft) W 0,00 h 0,026 mm 0,0 UV-I 109 W/m -2,4 C -2,1 C 2,6 km/h (1 Bft) 99,14 %
08.12.2016 12:00 -2,0 C 98 % 1036,0 hPa 0,0 l/m 2,4 km/h (1 Bft) SW 0,00 h 0,025 mm 0,3 UV-I 138 W/m -2,3 C -2,0 C 4,7 km/h (1 Bft) 98,00 %
08.12.2016 13:00 -1,7 C 98 % 1035,4 hPa 0,0 l/m 3,4 km/h (1 Bft) S-SW 0,10 h 0,051 mm 0,0 UV-I 126 W/m -1,9 C -1,7 C 6,1 km/h (2 Bft) 99,09 %
08.12.2016 14:00 -1,3 C 98 % 1034,9 hPa 0,0 l/m 2,8 km/h (1 Bft) W 0,03 h 0,051 mm 0,0 UV-I 85 W/m -1,6 C -1,3 C 4,7 km/h (1 Bft) 97,97 %
08.12.2016 15:00 -1,3 C 98 % 1034,4 hPa 0,0 l/m 1,8 km/h (1 Bft) SW 0,30 h 0,025 mm 0,0 UV-I 39 W/m -1,6 C -1,3 C 3,5 km/h (1 Bft) 99,41 %
08.12.2016 16:00 -1,6 C 98 % 1034,2 hPa 0,0 l/m 0,6 km/h (0 Bft) S-SW 0,00 h 0,000 mm 0,0 UV-I 7 W/m -1,8 C -1,6 C 1,9 km/h (1 Bft) 98,37 %
08.12.2016 17:00 -1,9 C 98 % 1034,1 hPa 0,0 l/m 0,4 km/h (0 Bft) NW 0,00 h 0,000 mm 0,0 UV-I 0 W/m -2,2 C -1,9 C 1,3 km/h (1 Bft) 99,52 %
08.12.2016 18:00 -2,0 C 98 % 1033,9 hPa 0,0 l/m 0,7 km/h (0 Bft) S-SW 0,00 h 0,000 mm 0,0 UV-I 0 W/m -2,3 C -2,0 C 1,9 km/h (1 Bft) 97,72 %
08.12.2016 19:00 -2,3 C 98 % 1034,1 hPa 0,0 l/m 0,7 km/h (0 Bft) NW 0,00 h 0,000 mm 0,0 UV-I 0 W/m -2,6 C -2,3 C 1,9 km/h (1 Bft) 98,54 %
08.12.2016 20:00 -2,4 C 98 % 1034,0 hPa 0,0 l/m 2,0 km/h (1 Bft) W 0,00 h 0,000 mm 0,0 UV-I 0 W/m -2,7 C -2,4 C 4,3 km/h (1 Bft) 98,22 %
08.12.2016 21:00 -2,3 C 98 % 1033,9 hPa 0,0 l/m 4,3 km/h (1 Bft) S-SW 0,00 h 0,000 mm 0,0 UV-I 0 W/m -2,6 C -2,4 C 7,5 km/h (2 Bft) 99,73 %
08.12.2016 22:00 -2,3 C 98 % 1033,9 hPa 0,0 l/m 1,4 km/h (1 Bft) SW 0,00 h 0,000 mm 0,0 UV-I 0 W/m -2,5 C -2,3 C 3,0 km/h (1 Bft) 97,75 %
08.12.2016 23:00 -2,5 C 98 % 1033,8 hPa 0,0 l/m 0,7 km/h (0 Bft) W-SW 0,00 h 0,000 mm 0,0 UV-I 0 W/m -2,8 C -2,5 C 2,1 km/h (1 Bft) 99,46 %
09.12.2016 00:00 -2,4 C 98 % 1033,1 hPa 0,0 l/m 0,1 km/h (0 Bft) N 0,00 h 0,000 mm 0,0 UV-I 0 W/m -2,6 C -2,4 C 0,6 km/h (0 Bft) 98,37 %
09.12.2016 01:00 -2,1 C 98 % 1032,8 hPa 0,0 l/m 1,6 km/h (1 Bft) S-SW 0,00 h 0,000 mm 0,0 UV-I 0 W/m -2,4 C -2,1 C 2,9 km/h (1 Bft) 99,59 %
09.12.2016 02:00 -2,4 C 98 % 1032,7 hPa 0,0 l/m 1,9 km/h (1 Bft) S 0,00 h 0,000 mm 0,0 UV-I 0 W/m -2,7 C -2,4 C 3,7 km/h (1 Bft) 97,98 %
09.12.2016 03:00 -2,2 C 98 % 1032,3 hPa 0,0 l/m 2,1 km/h (1 Bft) SW 0,00 h 0,000 mm 0,0 UV-I 0 W/m -2,5 C -2,2 C 4,2 km/h (1 Bft) 99,40 %
09.12.2016 04:00 -2,6 C 98 % 1032,3 hPa 0,0 l/m 2,0 km/h (1 Bft) S-SW 0,00 h 0,000 mm 0,0 UV-I 0 W/m -3,0 C -2,7 C 3,8 km/h (1 Bft) 97,96 %
09.12.2016 05:00 -3,6 C 97 % 1032,5 hPa 0,0 l/m 2,0 km/h (1 Bft) O-NO 0,00 h 0,000 mm 0,0 UV-I 0 W/m -4,0 C -3,6 C 3,4 km/h (1 Bft) 99,61 %
09.12.2016 06:00 -4,0 C 97 % 1032,5 hPa 0,0 l/m 1,8 km/h (1 Bft) SW 0,00 h 0,000 mm 0,0 UV-I 0 W/m -4,4 C -4,0 C 3,2 km/h (1 Bft) 98,09 %
09.12.2016 07:00 -3,8 C 97 % 1032,6 hPa 0,0 l/m 1,5 km/h (1 Bft) S 0,07 h 0,000 mm 0,0 UV-I 10 W/m -4,2 C -3,8 C 3,0 km/h (1 Bft) 98,05 %
09.12.2016 08:00 -2,8 C 97 % 1032,8 hPa 0,0 l/m 1,3 km/h (1 Bft) S 1,00 h 0,000 mm 0,0 UV-I 116 W/m -3,2 C -2,8 C 3,0 km/h (1 Bft) 99,05 %
09.12.2016 09:00 -1,4 C 98 % 1033,1 hPa 0,0 l/m 2,5 km/h (1 Bft) S-SW 1,00 h 0,025 mm 0,0 UV-I 180 W/m -1,6 C -1,4 C 4,5 km/h (1 Bft) 98,86 %
09.12.2016 10:00 0,3 C 98 % 1033,5 hPa 0,0 l/m 1,2 km/h (1 Bft) SW 0,97 h 0,051 mm 0,5 UV-I 261 W/m 0,1 C 0,3 C 2,3 km/h (1 Bft) 98,59 %
09.12.2016 11:00 2,4 C 93 % 1033,2 hPa 0,0 l/m 2,2 km/h (1 Bft) W-NW 1,00 h 0,076 mm 0,7 UV-I 320 W/m 1,5 C 2,4 C 4,5 km/h (1 Bft) 98,59 %
09.12.2016 12:00 4,2 C 86 % 1033,0 hPa 0,0 l/m 2,9 km/h (1 Bft) W-NW 0,87 h 0,102 mm 0,7 UV-I 298 W/m 2,0 C 4,2 C 6,2 km/h (2 Bft) 98,70 %
09.12.2016 13:00 4,9 C 78 % 1032,5 hPa 0,0 l/m 4,1 km/h (1 Bft) W 0,93 h 0,102 mm 0,5 UV-I 253 W/m 1,4 C 4,8 C 8,3 km/h (2 Bft) 99,38 %
09.12.2016 14:00 5,3 C 75 % 1032,0 hPa 0,0 l/m 4,2 km/h (1 Bft) W 1,00 h 0,101 mm 0,0 UV-I 169 W/m 1,3 C 5,1 C 7,5 km/h (2 Bft) 98,29 %
09.12.2016 15:00 4,6 C 77 % 1031,7 hPa 0,0 l/m 2,9 km/h (1 Bft) W 0,87 h 0,076 mm 0,0 UV-I 63 W/m 0,9 C 4,6 C 5,9 km/h (2 Bft) 99,45 %
09.12.2016 16:00 3,4 C 79 % 1032,3 hPa 0,0 l/m 4,1 km/h (1 Bft) W 0,00 h 0,026 mm 0,0 UV-I 7 W/m 0,1 C 3,4 C 8,3 km/h (2 Bft) 98,61 %
09.12.2016 17:00 2,3 C 82 % 1032,6 hPa 0,0 l/m 4,3 km/h (1 Bft) SW 0,00 h 0,000 mm 0,0 UV-I 0 W/m -0,5 C 2,3 C 6,2 km/h (2 Bft) 98,30 %
09.12.2016 18:00 2,4 C 85 % 1032,7 hPa 0,0 l/m 6,3 km/h (2 Bft) SW 0,00 h 0,000 mm 0,0 UV-I 0 W/m 0,0 C 1,9 C 9,4 km/h (2 Bft) 99,59 %
09.12.2016 19:00 3,6 C 80 % 1032,5 hPa 0,0 l/m 7,9 km/h (2 Bft) SW 0,00 h 0,000 mm 0,0 UV-I 0 W/m 0,5 C 2,2 C 11,6 km/h (2 Bft) 97,94 %
09.12.2016 20:00 3,9 C 81 % 1032,4 hPa 0,0 l/m 5,2 km/h (1 Bft) SW 0,00 h 0,025 mm 0,0 UV-I 0 W/m 0,9 C 3,7 C 7,4 km/h (2 Bft) 99,39 %
09.12.2016 21:00 3,8 C 82 % 1032,3 hPa 0,0 l/m 3,0 km/h (1 Bft) SW 0,00 h 0,000 mm 0,0 UV-I 0 W/m 1,0 C 3,8 C 5,0 km/h (1 Bft) 98,32 %
09.12.2016 22:00 3,7 C 83 % 1031,9 hPa 0,0 l/m 1,3 km/h (1 Bft) S 0,00 h 0,000 mm 0,0 UV-I 0 W/m 1,0 C 3,7 C 2,9 km/h (1 Bft) 99,43 %
09.12.2016 23:00 3,2 C 86 % 1031,2 hPa 0,0 l/m 1,9 km/h (1 Bft) S 0,00 h 0,000 mm 0,0 UV-I 0 W/m 1,1 C 3,2 C 3,6 km/h (1 Bft) 98,27 %
10.12.2016 00:00 3,1 C 87 % 1030,7 hPa 0,0 l/m 1,8 km/h (1 Bft) S 0,00 h 0,000 mm 0,0 UV-I 0 W/m 1,2 C 3,1 C 3,3 km/h (1 Bft) 99,01 %
10.12.2016 01:00 3,5 C 86 % 1030,1 hPa 0,0 l/m 2,0 km/h (1 Bft) S 0,00 h 0,000 mm 0,0 UV-I 0 W/m 1,4 C 3,5 C 4,2 km/h (1 Bft) 98,98 %
10.12.2016 02:00 3,6 C 85 % 1029,8 hPa 0,0 l/m 3,4 km/h (1 Bft) S 0,00 h 0,000 mm 0,0 UV-I 0 W/m 1,4 C 3,6 C 5,7 km/h (1 Bft) 98,49 %
10.12.2016 03:00 3,3 C 84 % 1029,3 hPa 0,0 l/m 3,3 km/h (1 Bft) S-SW 0,00 h 0,000 mm 0,0 UV-I 0 W/m 0,9 C 3,3 C 5,9 km/h (2 Bft) 99,42 %
10.12.2016 04:00 3,0 C 84 % 1028,9 hPa 0,0 l/m 3,6 km/h (1 Bft) S-SW 0,00 h 0,000 mm 0,0 UV-I 0 W/m 0,7 C 3,0 C 5,9 km/h (2 Bft) 98,37 %
10.12.2016 05:00 1,9 C 87 % 1028,6 hPa 0,0 l/m 3,0 km/h (1 Bft) S-SW 0,00 h 0,000 mm 0,0 UV-I 0 W/m -0,1 C 1,9 C 5,5 km/h (1 Bft) 99,50 %
10.12.2016 06:00 1,5 C 87 % 1028,2 hPa 0,0 l/m 3,5 km/h (1 Bft) S 0,00 h 0,000 mm 0,0 UV-I 0 W/m -0,4 C 1,5 C 6,1 km/h (2 Bft) 97,99 %
10.12.2016 07:00 0,9 C 89 % 1028,0 hPa 0,0 l/m 1,8 km/h (1 Bft) S 0,07 h 0,000 mm 0,0 UV-I 9 W/m -0,7 C 0,9 C 3,4 km/h (1 Bft) 99,34 %
10.12.2016 08:00 1,1 C 90 % 1028,1 hPa 0,0 l/m 2,7 km/h (1 Bft) S 1,00 h 0,000 mm 0,0 UV-I 81 W/m -0,4 C 1,1 C 4,3 km/h (1 Bft) 98,27 %
10.12.2016 09:00 2,8 C 86 % 1028,2 hPa 0,0 l/m 2,9 km/h (1 Bft) S-SW 1,00 h 0,025 mm 0,0 UV-I 185 W/m 0,7 C 2,8 C 5,3 km/h (1 Bft) 99,42 %
10.12.2016 10:00 4,9 C 80 % 1027,9 hPa 0,0 l/m 4,3 km/h (1 Bft) S-SW 1,00 h 0,077 mm 0,5 UV-I 256 W/m 1,8 C 4,9 C 6,9 km/h (2 Bft) 98,54 %
10.12.2016 11:00 6,9 C 74 % 1027,2 hPa 0,0 l/m 3,3 km/h (1 Bft) S-SW 1,00 h 0,101 mm 0,7 UV-I 326 W/m 2,7 C 6,9 C 5,8 km/h (2 Bft) 98,60 %
10.12.2016 12:00 7,8 C 70 % 1026,2 hPa 0,0 l/m 3,2 km/h (1 Bft) SW 1,00 h 0,153 mm 0,7 UV-I 309 W/m 2,7 C 7,8 C 5,6 km/h (1 Bft) 99,10 %
10.12.2016 13:00 8,7 C 62 % 1025,7 hPa 0,0 l/m 2,6 km/h (1 Bft) NW 1,00 h 0,152 mm 0,5 UV-I 263 W/m 1,8 C 8,7 C 4,9 km/h (1 Bft) 99,23 %
10.12.2016 14:00 8,6 C 59 % 1025,3 hPa 0,0 l/m 0,7 km/h (0 Bft) NW 1,00 h 0,127 mm 0,0 UV-I 164 W/m 1,1 C 8,6 C 2,2 km/h (1 Bft) 97,68 %
10.12.2016 15:00 7,3 C 69 % 1025,3 hPa 0,0 l/m 0,4 km/h (0 Bft) NW 0,97 h 0,076 mm 0,0 UV-I 62 W/m 1,9 C 7,3 C 1,3 km/h (1 Bft) 99,67 %
10.12.2016 16:00 4,5 C 81 % 1025,2 hPa 0,0 l/m 1,7 km/h (1 Bft) S 0,00 h 0,026 mm 0,0 UV-I 8 W/m 1,6 C 4,5 C 3,0 km/h (1 Bft) 99,37 %
10.12.2016 17:00 3,2 C 86 % 1025,1 hPa 0,0 l/m 0,7 km/h (0 Bft) S 0,00 h 0,000 mm 0,0 UV-I 0 W/m 1,1 C 3,2 C 1,7 km/h (1 Bft) 98,37 %
10.12.2016 18:00 2,8 C 87 % 1025,1 hPa 0,0 l/m 1,4 km/h (1 Bft) S 0,00 h 0,000 mm 0,0 UV-I 0 W/m 0,9 C 2,8 C 2,3 km/h (1 Bft) 98,17 %
10.12.2016 19:00 1,7 C 90 % 1025,0 hPa 0,0 l/m 2,1 km/h (1 Bft) S 0,00 h 0,000 mm 0,0 UV-I 0 W/m 0,1 C 1,7 C 3,4 km/h (1 Bft) 99,73 %
10.12.2016 20:00 1,8 C 92 % 1024,6 hPa 0,0 l/m 2,7 km/h (1 Bft) S 0,00 h 0,000 mm 0,0 UV-I 0 W/m 0,7 C 1,8 C 4,3 km/h (1 Bft) 97,86 %
10.12.2016 21:00 1,2 C 94 % 1024,2 hPa 0,0 l/m 2,3 km/h (1 Bft) S 0,00 h 0,000 mm 0,0 UV-I 0 W/m 0,2 C 1,2 C 3,9 km/h (1 Bft) 99,46 %
10.12.2016 22:00 0,6 C 94 % 1023,7 hPa 0,0 l/m 2,3 km/h (1 Bft) S 0,00 h 0,000 mm 0,0 UV-I 0 W/m -0,2 C 0,6 C 3,7 km/h (1 Bft) 98,72 %
10.12.2016 23:00 0,2 C 95 % 1023,3 hPa 0,0 l/m 2,0 km/h (1 Bft) S 0,00 h 0,000 mm 0,0 UV-I 0 W/m -0,4 C 0,2 C 3,2 km/h (1 Bft) 98,49 %
11.12.2016 00:00 -0,2 C 96 % 1022,8 hPa 0,0 l/m 2,3 km/h (1 Bft) S 0,00 h 0,000 mm 0,0 UV-I 0 W/m -0,8 C -0,2 C 3,5 km/h (1 Bft) 99,71 %
11.12.2016 01:00 -0,2 C 95 % 1022,2 hPa 0,0 l/m 2,5 km/h (1 Bft) S 0,00 h 0,000 mm 0,0 UV-I 0 W/m -0,8 C -0,2 C 4,2 km/h (1 Bft) 98,09 %
11.12.2016 02:00 -0,2 C 94 % 1021,5 hPa 0,0 l/m 2,8 km/h (1 Bft) S 0,00 h 0,000 mm 0,0 UV-I 0 W/m -1,0 C -0,2 C 4,2 km/h (1 Bft) 99,39 %
11.12.2016 03:00 -1,0 C 95 % 1020,7 hPa 0,0 l/m 2,6 km/h (1 Bft) S 0,00 h 0,000 mm 0,0 UV-I 0 W/m -1,7 C -1,0 C 3,8 km/h (1 Bft) 98,93 %
11.12.2016 04:00 -1,4 C 96 % 1020,3 hPa 0,0 l/m 2,2 km/h (1 Bft) S 0,00 h 0,000 mm 0,0 UV-I 0 W/m -2,1 C -1,4 C 4,1 km/h (1 Bft) 98,18 %
11.12.2016 05:00 -1,4 C 96 % 1020,0 hPa 0,0 l/m 4,4 km/h (1 Bft) S-SW 0,00 h 0,000 mm 0,0 UV-I 0 W/m -2,0 C -1,4 C 7,3 km/h (2 Bft) 99,44 %
11.12.2016 06:00 -1,1 C 94 % 1020,0 hPa 0,0 l/m 6,1 km/h (2 Bft) SW 0,00 h 0,000 mm 0,0 UV-I 0 W/m -1,9 C -1,6 C 8,9 km/h (2 Bft) 97,73 %
11.12.2016 07:00 -0,6 C 91 % 1020,7 hPa 0,0 l/m 7,4 km/h (2 Bft) W-SW 0,03 h 0,000 mm 0,0 UV-I 9 W/m -1,9 C -2,0 C 10,7 km/h (2 Bft) 99,13 %
11.12.2016 08:00 0,7 C 85 % 1021,0 hPa 0,0 l/m 10,9 km/h (2 Bft) W-SW 0,23 h 0,000 mm 0,0 UV-I 29 W/m -1,5 C -3,0 C 16,3 km/h (3 Bft) 98,93 %
11.12.2016 09:00 3,1 C 76 % 1020,9 hPa 0,2 l/m 12,6 km/h (3 Bft) SW 0,63 h 0,025 mm 0,0 UV-I 148 W/m -0,7 C -1,7 C 18,6 km/h (3 Bft) 98,16 %
11.12.2016 10:00 5,2 C 69 % 1019,9 hPa 0,0 l/m 10,5 km/h (2 Bft) W-SW 0,57 h 0,077 mm 0,5 UV-I 221 W/m -0,1 C 1,8 C 16,5 km/h (3 Bft) 99,24 %
11.12.2016 11:00 3,6 C 78 % 1019,3 hPa 0,0 l/m 3,3 km/h (1 Bft) NW 0,00 h 0,127 mm 0,0 UV-I 61 W/m 0,1 C 3,4 C 6,6 km/h (2 Bft) 98,07 %
11.12.2016 12:00 3,4 C 89 % 1019,0 hPa 0,2 l/m 2,2 km/h (1 Bft) NW 0,00 h 0,025 mm 0,0 UV-I 30 W/m 1,7 C 3,4 C 5,5 km/h (1 Bft) 99,31 %
11.12.2016 13:00 5,6 C 88 % 1019,0 hPa 0,2 l/m 16,5 km/h (3 Bft) W 0,00 h 0,025 mm 0,0 UV-I 31 W/m 3,8 C -0,0 C 28,0 km/h (4 Bft) 98,27 %
11.12.2016 14:00 6,9 C 86 % 1019,8 hPa 0,0 l/m 20,3 km/h (4 Bft) W-SW 0,00 h 0,026 mm 0,0 UV-I 38 W/m 4,8 C -0,7 C 32,3 km/h (5 Bft) 99,58 %
11.12.2016 15:00 6,7 C 86 % 1020,4 hPa 0,0 l/m 17,2 km/h (3 Bft) W 0,07 h 0,051 mm 0,0 UV-I 23 W/m 4,5 C 0,2 C 28,5 km/h (4 Bft) 97,69 %
11.12.2016 16:00 6,3 C 85 % 1020,9 hPa 0,0 l/m 13,3 km/h (3 Bft) W-SW 0,00 h 0,025 mm 0,0 UV-I 5 W/m 4,1 C 1,7 C 20,6 km/h (4 Bft) 99,29 %
11.12.2016 17:00 6,1 C 86 % 1021,2 hPa 0,0 l/m 13,3 km/h (3 Bft) W-SW 0,00 h 0,025 mm 0,0 UV-I 0 W/m 3,9 C 1,4 C 19,3 km/h (3 Bft) 98,11 %
11.12.2016 18:00 6,0 C 85 % 1021,1 hPa 0,0 l/m 16,8 km/h (3 Bft) W 0,00 h 0,026 mm 0,0 UV-I 0 W/m 3,7 C -0,4 C 25,1 km/h (4 Bft) 99,27 %
11.12.2016 19:00 6,1 C 84 % 1021,1 hPa 0,0 l/m 16,9 km/h (3 Bft) W-SW 0,00 h 0,025 mm 0,0 UV-I 0 W/m 3,7 C -0,4 C 25,3 km/h (4 Bft) 98,12 %
11.12.2016 20:00 6,1 C 84 % 1021,0 hPa 0,0 l/m 17,2 km/h (3 Bft) W-SW 0,00 h 0,026 mm 0,0 UV-I 0 W/m 3,5 C -0,5 C 26,1 km/h (4 Bft) 99,76 %
11.12.2016 21:00 6,1 C 81 % 1020,7 hPa 0,0 l/m 17,6 km/h (3 Bft) W-SW 0,00 h 0,025 mm 0,0 UV-I 0 W/m 3,2 C -0,7 C 25,7 km/h (4 Bft) 98,62 %
11.12.2016 22:00 5,8 C 83 % 1020,7 hPa 0,0 l/m 14,9 km/h (3 Bft) W-SW 0,00 h 0,025 mm 0,0 UV-I 0 W/m 3,1 C 0,2 C 21,6 km/h (4 Bft) 98,66 %
11.12.2016 23:00 6,0 C 80 % 1020,7 hPa 0,0 l/m 17,6 km/h (3 Bft) W-SW 0,00 h 0,026 mm 0,0 UV-I 0 W/m 2,9 C -0,8 C 26,7 km/h (4 Bft) 98,27 %
Min-Datum _ 09.12.16 10.12.16 11.12.16 - 05.12.16 - - - - - 09.12.16 05.12.16 05.12.16 10.12.16
_ Min-Zeit 06:52 14:26 12:40 - 05:12 - - - - - 06:54 01:00 05:12 14:42
Minimum _ -4,3 C 57 % 1018,8 hPa - 0,0 km/h (0 Bft) - - - - - -4,7 C -9,0 C 0,0 km/h (0 Bft) 90,00 %
Max-Datum _ 10.12.16 09.12.16 07.12.16 11.12.16 11.12.16 - 09.12.16 10.12.16 09.12.16 06.12.16 11.12.16 10.12.16 11.12.16 05.12.16
_ Max-Zeit 13:44 10:18 10:08 09:22 13:56 - 10:03 12:00 11:22 13:04 13:58 13:44 13:52 00:26
Maximum _ 8,9 C 99 % 1038,1 hPa 0,2 l/m 32,1 km/h
W (5 Bft)
- 0,05 h 0,153 mm 0,7 UV-I 433 W/m 5,0 C 8,9 C 56,3 km/h
W (7 Bft)
100,00 %
Durchschnitt _ -0,1 C 92 % 1030,6 hPa #0,6 l/m 4,0 km/h (1 Bft) S #18:42 h #2,591 mm 0,5 UV-I 87 W/m -1,3 C -0,7 C 6,8 km/h (2 Bft) 98,70 %